createdAt,value
2022-12-04T00:00:15.728Z,1.56
2022-12-04T00:02:47.715Z,1.49
2022-12-04T00:05:19.838Z,1.53
2022-12-04T00:07:51.886Z,1.56
2022-12-04T00:10:23.900Z,1.53
2022-12-04T00:12:55.907Z,1.60
2022-12-04T00:15:27.846Z,1.70
2022-12-04T00:17:59.777Z,1.75
2022-12-04T00:20:31.734Z,1.80
2022-12-04T00:23:03.816Z,1.74
2022-12-04T00:25:40.903Z,1.79
2022-12-04T00:28:13.347Z,1.75
2022-12-04T00:30:46.272Z,1.74
2022-12-04T00:33:18.188Z,1.70
2022-12-04T00:35:58.908Z,1.64
2022-12-04T00:38:31.073Z,1.61
2022-12-04T00:41:03.989Z,1.70
2022-12-04T00:43:36.002Z,1.72
2022-12-04T00:46:09.283Z,1.72
2022-12-04T00:48:42.402Z,1.81
2022-12-04T00:51:21.911Z,1.79
2022-12-04T00:53:54.713Z,1.63
2022-12-04T00:56:28.569Z,1.64
2022-12-04T00:59:01.791Z,1.66
2022-12-04T01:01:33.818Z,1.64
2022-12-04T01:04:06.060Z,1.69
2022-12-04T01:06:38.021Z,1.64
2022-12-04T01:09:09.950Z,1.70
2022-12-04T01:11:41.948Z,1.65
2022-12-04T01:14:13.913Z,1.72
2022-12-04T01:16:47.351Z,1.76
2022-12-04T01:19:19.492Z,1.84
2022-12-04T01:21:52.101Z,1.85
2022-12-04T01:24:24.031Z,1.85
2022-12-04T01:26:56.068Z,1.97
2022-12-04T01:29:28.126Z,1.94
2022-12-04T01:32:00.222Z,1.94
2022-12-04T01:34:32.329Z,1.90
2022-12-04T01:37:04.433Z,1.87
2022-12-04T01:39:37.078Z,1.92
2022-12-04T01:42:14.458Z,1.97
2022-12-04T01:45:45.238Z,1.97
2022-12-04T01:48:49.598Z,1.96
2022-12-04T01:51:31.117Z,1.99
2022-12-04T01:54:11.014Z,1.98
2022-12-04T01:56:51.653Z,1.96
2022-12-04T01:59:28.421Z,1.90
2022-12-04T02:02:09.463Z,1.91
2022-12-04T02:04:42.785Z,1.90
2022-12-04T02:07:14.869Z,1.91
2022-12-04T02:09:53.827Z,1.95
2022-12-04T02:12:34.917Z,2.00
2022-12-04T02:15:24.209Z,1.96
2022-12-04T02:18:28.475Z,1.99
2022-12-04T02:21:36.661Z,1.85
2022-12-04T02:24:36.664Z,1.90
2022-12-04T02:27:41.781Z,1.97
2022-12-04T02:30:14.813Z,1.99
2022-12-04T02:33:05.812Z,2.00
2022-12-04T02:35:47.316Z,1.96
2022-12-04T02:38:28.948Z,2.02
2022-12-04T02:41:03.136Z,2.01
2022-12-04T02:43:47.704Z,2.02
2022-12-04T02:46:39.933Z,2.00
2022-12-04T02:49:21.390Z,2.05
2022-12-04T02:51:55.383Z,2.09
2022-12-04T02:54:41.755Z,2.02
2022-12-04T02:57:20.692Z,2.06
2022-12-04T02:59:57.061Z,2.08
2022-12-04T03:02:49.446Z,2.04
2022-12-04T03:05:30.644Z,2.03
2022-12-04T03:08:08.698Z,2.09
2022-12-04T03:10:49.156Z,2.11
2022-12-04T03:14:00.163Z,2.09
2022-12-04T03:16:40.411Z,2.09
2022-12-04T03:19:37.937Z,2.06
2022-12-04T03:22:15.825Z,2.03
2022-12-04T03:24:55.873Z,2.04
2022-12-04T03:27:56.672Z,1.98
2022-12-04T03:30:38.116Z,2.07
2022-12-04T03:33:26.549Z,2.04
2022-12-04T03:36:16.980Z,2.03
2022-12-04T03:39:11.148Z,1.99
2022-12-04T03:41:56.926Z,2.01
2022-12-04T03:44:41.255Z,2.01
2022-12-04T03:47:28.802Z,1.97
2022-12-04T03:50:09.834Z,2.12
2022-12-04T03:53:17.727Z,1.97
2022-12-04T03:56:06.753Z,2.04
2022-12-04T03:58:44.565Z,2.01
2022-12-04T04:01:22.588Z,2.00
2022-12-04T04:03:58.006Z,2.01
2022-12-04T04:06:41.253Z,2.01
2022-12-04T04:09:23.005Z,2.09
2022-12-04T04:12:05.695Z,2.02
2022-12-04T04:14:59.485Z,1.95
2022-12-04T04:18:07.567Z,1.94
2022-12-04T04:21:03.660Z,1.94
2022-12-04T04:24:02.427Z,1.96
2022-12-04T04:26:39.452Z,1.99
2022-12-04T04:29:12.196Z,2.01
2022-12-04T04:32:25.287Z,2.08
2022-12-04T04:35:15.653Z,2.07
2022-12-04T04:38:09.089Z,2.06
2022-12-04T04:41:09.301Z,2.14
2022-12-04T04:44:03.628Z,2.09
2022-12-04T04:46:40.696Z,2.06
2022-12-04T04:49:14.899Z,2.10
2022-12-04T04:51:48.241Z,2.14
2022-12-04T04:54:21.385Z,2.18
2022-12-04T04:56:53.353Z,2.23
2022-12-04T04:59:25.413Z,2.20
2022-12-04T05:01:57.565Z,2.13
2022-12-04T05:04:29.657Z,2.16
2022-12-04T05:07:01.635Z,2.16
2022-12-04T05:09:38.240Z,2.25
2022-12-04T05:12:13.092Z,2.30
2022-12-04T05:14:47.018Z,2.27
2022-12-04T05:17:19.035Z,2.21
2022-12-04T05:19:54.845Z,2.25
2022-12-04T05:22:35.937Z,2.26
2022-12-04T05:25:08.531Z,2.23
2022-12-04T05:27:40.592Z,2.23
2022-12-04T05:30:13.264Z,2.35
2022-12-04T05:32:45.252Z,2.26
2022-12-04T05:35:17.442Z,2.28
2022-12-04T05:37:49.426Z,2.23
2022-12-04T05:40:21.364Z,2.22
2022-12-04T05:42:53.299Z,2.23
2022-12-04T05:45:25.219Z,2.18
2022-12-04T05:47:57.137Z,2.26
2022-12-04T05:50:29.070Z,2.36
2022-12-04T05:53:00.980Z,2.40
2022-12-04T05:55:32.958Z,2.36
2022-12-04T05:58:05.048Z,2.38
2022-12-04T06:00:37.090Z,2.35
2022-12-04T06:03:09.082Z,2.36
2022-12-04T06:05:41.097Z,2.44
2022-12-04T06:08:13.501Z,2.44
2022-12-04T06:10:45.572Z,2.41
2022-12-04T06:13:17.613Z,2.42
2022-12-04T06:15:49.533Z,2.46
2022-12-04T06:18:21.481Z,2.50
2022-12-04T06:20:53.459Z,2.51
2022-12-04T06:23:25.524Z,2.52
2022-12-04T06:26:02.170Z,2.51
2022-12-04T06:28:37.722Z,2.44
2022-12-04T06:31:13.864Z,2.47
2022-12-04T06:33:46.403Z,2.56
2022-12-04T06:36:21.226Z,2.54
2022-12-04T06:38:56.874Z,2.54
2022-12-04T06:41:29.482Z,2.59
2022-12-04T06:44:01.588Z,2.63
2022-12-04T06:46:35.040Z,2.54
2022-12-04T06:49:07.113Z,2.64
2022-12-04T06:51:40.858Z,2.59
2022-12-04T06:54:12.987Z,2.55
2022-12-04T06:56:45.020Z,2.55
2022-12-04T06:59:17.297Z,2.53
2022-12-04T07:01:49.419Z,2.60
2022-12-04T07:04:21.551Z,2.54
2022-12-04T07:06:54.677Z,2.46
2022-12-04T07:09:26.629Z,2.50
2022-12-04T07:11:58.636Z,2.54
2022-12-04T07:14:30.682Z,2.58
2022-12-04T07:17:02.756Z,2.58
2022-12-04T07:19:34.790Z,2.48
2022-12-04T07:22:08.990Z,2.53
2022-12-04T07:24:40.942Z,2.58
2022-12-04T07:27:12.917Z,2.56
2022-12-04T07:29:44.823Z,2.54
2022-12-04T07:32:16.918Z,2.60
2022-12-04T07:34:48.930Z,2.58
2022-12-04T07:37:20.866Z,2.59
2022-12-04T07:39:53.291Z,2.62
2022-12-04T07:42:25.430Z,2.61
2022-12-04T07:44:57.420Z,2.59
2022-12-04T07:47:29.390Z,2.64
2022-12-04T07:50:01.440Z,2.59
2022-12-04T07:52:39.831Z,2.59
2022-12-04T07:55:11.778Z,2.59
2022-12-04T07:57:43.737Z,2.66
2022-12-04T08:00:16.415Z,2.68
2022-12-04T08:02:49.963Z,2.72
2022-12-04T08:05:22.050Z,2.74
2022-12-04T08:07:54.484Z,2.82
2022-12-04T08:10:26.466Z,2.79
2022-12-04T08:12:58.395Z,2.82
2022-12-04T08:15:30.320Z,2.74
2022-12-04T08:18:02.298Z,2.80
2022-12-04T08:20:34.244Z,2.81
2022-12-04T08:23:06.205Z,2.86
2022-12-04T08:25:41.737Z,2.87
2022-12-04T08:28:13.810Z,2.83
2022-12-04T08:30:45.790Z,2.85
2022-12-04T08:33:17.957Z,2.91
2022-12-04T08:35:49.914Z,2.94
2022-12-04T08:38:21.873Z,2.89
2022-12-04T08:40:53.839Z,2.91
2022-12-04T08:43:25.802Z,2.94
2022-12-04T08:46:05.008Z,2.87
2022-12-04T08:48:37.650Z,2.88
2022-12-04T08:51:17.125Z,2.92
2022-12-04T08:53:58.740Z,2.95
2022-12-04T08:56:33.475Z,2.97
2022-12-04T08:59:06.578Z,3.00
2022-12-04T09:01:39.463Z,3.01
2022-12-04T09:04:11.583Z,3.02
2022-12-04T09:06:43.633Z,3.09
2022-12-04T09:09:16.857Z,3.10
2022-12-04T09:11:48.927Z,3.15
2022-12-04T09:14:25.978Z,3.18
2022-12-04T09:16:58.126Z,3.24
2022-12-04T09:19:31.560Z,3.24
2022-12-04T09:22:03.873Z,3.23
2022-12-04T09:24:35.805Z,3.25
2022-12-04T09:27:14.285Z,3.27
2022-12-04T09:29:46.924Z,3.30
2022-12-04T09:32:19.593Z,3.38
2022-12-04T09:34:52.977Z,3.43
2022-12-04T09:37:25.068Z,3.46
2022-12-04T09:39:57.199Z,3.52
2022-12-04T09:42:43.779Z,3.49
2022-12-04T09:45:22.964Z,3.45
2022-12-04T09:47:59.384Z,3.51
2022-12-04T09:50:44.419Z,3.53
2022-12-04T09:53:47.558Z,3.58
2022-12-04T09:56:21.646Z,3.47
2022-12-04T09:59:03.389Z,3.46
2022-12-04T10:02:37.770Z,3.49
2022-12-04T10:05:47.257Z,3.45
2022-12-04T10:08:39.972Z,3.44
2022-12-04T10:12:23.253Z,3.43
2022-12-04T10:15:28.526Z,3.53
2022-12-04T10:18:29.318Z,3.49
2022-12-04T10:21:45.221Z,3.48
2022-12-04T10:24:41.079Z,3.42
2022-12-04T10:27:48.132Z,3.42
2022-12-04T10:30:26.850Z,3.49
2022-12-04T10:33:11.771Z,3.43
2022-12-04T10:35:46.549Z,3.41
2022-12-04T10:38:49.110Z,3.48
2022-12-04T10:41:44.397Z,3.55
2022-12-04T10:44:18.831Z,3.58
2022-12-04T10:46:57.833Z,3.67
2022-12-04T10:49:33.475Z,3.65
2022-12-04T10:52:11.121Z,3.69
2022-12-04T10:54:55.529Z,3.71
2022-12-04T10:57:47.291Z,3.75
2022-12-04T11:00:34.458Z,3.77
2022-12-04T11:03:23.239Z,3.76
2022-12-04T11:06:01.370Z,3.76
2022-12-04T11:08:49.650Z,3.68
2022-12-04T11:11:30.181Z,3.82
2022-12-04T11:14:18.396Z,3.75
2022-12-04T11:17:06.297Z,3.74
2022-12-04T11:19:38.226Z,3.73
2022-12-04T11:22:18.250Z,3.70
2022-12-04T11:24:54.539Z,3.68
2022-12-04T11:27:32.877Z,3.76
2022-12-04T11:30:13.923Z,3.69
2022-12-04T11:32:47.120Z,3.69
2022-12-04T11:35:25.290Z,3.69
2022-12-04T11:38:05.018Z,3.67
2022-12-04T11:40:37.440Z,3.73
2022-12-04T11:43:17.882Z,3.59
2022-12-04T11:45:59.723Z,3.63
2022-12-04T11:48:42.171Z,3.64
2022-12-04T11:51:53.759Z,3.78
2022-12-04T11:55:12.538Z,3.73
2022-12-04T11:58:29.575Z,3.68
2022-12-04T12:01:16.314Z,3.80
2022-12-04T12:04:32.796Z,3.89
2022-12-04T12:07:20.192Z,3.91
2022-12-04T12:10:19.708Z,3.93
2022-12-04T12:13:09.680Z,3.91
2022-12-04T12:16:23.625Z,4.02
2022-12-04T12:19:59.008Z,4.01
2022-12-04T12:23:11.853Z,4.00
2022-12-04T12:26:10.633Z,4.06
2022-12-04T12:29:14.079Z,4.07
2022-12-04T12:32:20.073Z,4.14
2022-12-04T12:34:52.577Z,4.17
2022-12-04T12:37:47.867Z,4.21
2022-12-04T12:40:35.122Z,4.23
2022-12-04T12:43:32.557Z,4.29
2022-12-04T12:46:30.958Z,4.30
2022-12-04T12:49:17.776Z,4.37
2022-12-04T12:52:11.219Z,4.41
2022-12-04T12:54:57.334Z,4.42
2022-12-04T12:57:42.548Z,4.44
2022-12-04T13:00:21.768Z,4.46
2022-12-04T13:03:18.368Z,4.40
2022-12-04T13:05:55.933Z,4.38
2022-12-04T13:08:47.853Z,4.41
2022-12-04T13:11:25.853Z,4.44
2022-12-04T13:14:05.205Z,4.44
2022-12-04T13:16:51.355Z,4.48
2022-12-04T13:19:26.757Z,4.49
2022-12-04T13:22:52.708Z,4.51
2022-12-04T13:25:46.784Z,4.49
2022-12-04T13:28:41.463Z,4.50
2022-12-04T13:31:31.329Z,4.51
2022-12-04T13:34:44.648Z,4.51
2022-12-04T13:38:07.828Z,4.47
2022-12-04T13:40:58.432Z,4.38
2022-12-04T13:43:42.542Z,4.38
2022-12-04T13:46:39.764Z,4.46
2022-12-04T13:49:17.819Z,4.40
2022-12-04T13:51:50.187Z,4.37
2022-12-04T13:54:28.756Z,4.38
2022-12-04T13:57:15.946Z,4.43
2022-12-04T13:59:49.577Z,4.36
2022-12-04T14:02:35.472Z,4.44
2022-12-04T14:05:11.589Z,4.36
2022-12-04T14:08:07.816Z,4.35
2022-12-04T14:10:40.639Z,4.38
2022-12-04T14:13:24.105Z,4.41
2022-12-04T14:16:34.047Z,4.44
2022-12-04T14:19:07.584Z,4.45
2022-12-04T14:21:45.973Z,4.46
2022-12-04T14:24:35.244Z,4.41
2022-12-04T14:27:42.857Z,4.37
2022-12-04T14:30:38.306Z,4.41
2022-12-04T14:33:22.709Z,4.43
2022-12-04T14:36:29.000Z,4.39
2022-12-04T14:39:41.765Z,4.40
2022-12-04T14:42:29.652Z,4.44
2022-12-04T14:45:05.668Z,4.37
2022-12-04T14:47:58.078Z,4.32
2022-12-04T14:50:53.400Z,4.33
2022-12-04T14:54:21.248Z,4.39
2022-12-04T14:57:12.262Z,4.34
2022-12-04T14:59:53.575Z,4.40
2022-12-04T15:02:35.330Z,4.43
2022-12-04T15:05:23.040Z,4.43
2022-12-04T15:08:04.490Z,4.45
2022-12-04T15:10:56.991Z,4.51
2022-12-04T15:13:33.457Z,4.49
2022-12-04T15:16:11.212Z,4.51
2022-12-04T15:18:54.908Z,4.52
2022-12-04T15:21:42.432Z,4.50
2022-12-04T15:24:20.311Z,4.50
2022-12-04T15:26:53.641Z,4.50
2022-12-04T15:29:32.072Z,4.47
2022-12-04T15:32:12.025Z,4.50
2022-12-04T15:34:51.697Z,4.53
2022-12-04T15:37:29.023Z,4.56
2022-12-04T15:40:06.682Z,4.57
2022-12-04T15:42:38.697Z,4.61
2022-12-04T15:45:10.544Z,4.57
2022-12-04T15:47:42.479Z,4.53
2022-12-04T15:50:17.065Z,4.52
2022-12-04T15:53:07.450Z,4.47
2022-12-04T15:55:50.117Z,4.57
2022-12-04T15:58:31.052Z,4.55
2022-12-04T16:01:10.227Z,4.58
2022-12-04T16:03:42.350Z,4.60
2022-12-04T16:06:33.125Z,4.60
2022-12-04T16:09:26.084Z,4.59
2022-12-04T16:12:04.177Z,4.57
2022-12-04T16:14:36.170Z,4.61
2022-12-04T16:17:11.149Z,4.66
2022-12-04T16:19:43.254Z,4.63
2022-12-04T16:22:20.653Z,4.68
2022-12-04T16:24:54.022Z,4.69
2022-12-04T16:27:26.377Z,4.64
2022-12-04T16:29:58.444Z,4.68
2022-12-04T16:32:33.309Z,4.74
2022-12-04T16:35:06.570Z,4.60
2022-12-04T16:37:38.707Z,4.63
2022-12-04T16:40:15.004Z,4.66
2022-12-04T16:42:47.055Z,4.72
2022-12-04T16:45:32.838Z,4.74
2022-12-04T16:48:05.252Z,4.73
2022-12-04T16:50:37.300Z,4.75
2022-12-04T16:53:18.425Z,4.76
2022-12-04T16:55:52.617Z,4.75
2022-12-04T16:58:24.687Z,4.76
2022-12-04T17:00:57.497Z,4.78
2022-12-04T17:03:34.359Z,4.80
2022-12-04T17:06:06.502Z,4.79
2022-12-04T17:08:38.488Z,4.78
2022-12-04T17:11:15.836Z,4.78
2022-12-04T17:13:47.821Z,4.73
2022-12-04T17:16:20.232Z,4.77
2022-12-04T17:18:52.569Z,4.82
2022-12-04T17:21:24.692Z,4.87
2022-12-04T17:23:56.910Z,4.87
2022-12-04T17:26:29.249Z,4.90
2022-12-04T17:29:01.259Z,4.90
2022-12-04T17:31:33.393Z,4.94
2022-12-04T17:34:05.511Z,4.92
2022-12-04T17:36:37.503Z,4.88
2022-12-04T17:39:11.698Z,4.83
2022-12-04T17:41:43.708Z,4.86
2022-12-04T17:44:15.699Z,4.94
2022-12-04T17:46:47.769Z,4.98
2022-12-04T17:49:19.779Z,4.96
2022-12-04T17:51:51.761Z,4.95
2022-12-04T17:54:23.911Z,5.00
2022-12-04T17:56:57.929Z,4.99
2022-12-04T17:59:30.183Z,4.97
2022-12-04T18:02:02.265Z,4.95
2022-12-04T18:04:34.194Z,4.97
2022-12-04T18:07:06.546Z,5.01
2022-12-04T18:09:38.885Z,5.04
2022-12-04T18:12:12.502Z,4.99
2022-12-04T18:14:44.562Z,4.98
2022-12-04T18:17:17.718Z,4.98
2022-12-04T18:19:49.691Z,4.98
2022-12-04T18:22:21.718Z,4.97
2022-12-04T18:24:54.653Z,4.99
2022-12-04T18:27:26.695Z,4.99
2022-12-04T18:30:00.790Z,5.00
2022-12-04T18:32:32.767Z,5.01
2022-12-04T18:35:05.176Z,4.99
2022-12-04T18:37:37.474Z,5.00
2022-12-04T18:40:10.982Z,5.03
2022-12-04T18:42:42.918Z,5.07
2022-12-04T18:45:14.998Z,5.08
2022-12-04T18:47:48.848Z,5.06
2022-12-04T18:50:20.822Z,5.07
2022-12-04T18:52:58.804Z,5.09
2022-12-04T18:55:37.365Z,5.13
2022-12-04T18:58:09.339Z,5.13
2022-12-04T19:00:41.271Z,5.14
2022-12-04T19:03:13.373Z,5.13
2022-12-04T19:05:50.498Z,5.17
2022-12-04T19:08:22.482Z,5.14
2022-12-04T19:10:54.466Z,5.17
2022-12-04T19:13:26.571Z,5.17
2022-12-04T19:15:58.585Z,5.20
2022-12-04T19:18:31.568Z,5.22
2022-12-04T19:21:06.612Z,5.19
2022-12-04T19:23:38.766Z,5.23
2022-12-04T19:26:10.745Z,5.17
2022-12-04T19:28:42.782Z,5.15
2022-12-04T19:31:17.405Z,5.14
2022-12-04T19:33:49.794Z,5.16
2022-12-04T19:36:21.846Z,5.16
2022-12-04T19:38:54.511Z,5.20
2022-12-04T19:41:30.248Z,5.19
2022-12-04T19:44:14.664Z,5.21
2022-12-04T19:46:55.204Z,5.22
2022-12-04T19:49:27.602Z,5.29
2022-12-04T19:51:59.585Z,5.28
2022-12-04T19:54:31.692Z,5.26
2022-12-04T19:57:03.828Z,5.24
2022-12-04T19:59:39.536Z,5.17
2022-12-04T20:02:15.118Z,5.23
2022-12-04T20:04:47.235Z,5.21
2022-12-04T20:07:19.312Z,5.25
2022-12-04T20:09:52.662Z,5.25
2022-12-04T20:12:24.933Z,5.23
2022-12-04T20:14:57.533Z,5.28
2022-12-04T20:17:29.618Z,5.31
2022-12-04T20:20:01.935Z,5.42
2022-12-04T20:22:35.022Z,5.36
2022-12-04T20:25:07.553Z,5.37
2022-12-04T20:27:39.510Z,5.39
2022-12-04T20:30:12.007Z,5.40
2022-12-04T20:32:43.986Z,5.39
2022-12-04T20:35:16.210Z,5.46
2022-12-04T20:37:48.174Z,5.46
2022-12-04T20:40:20.208Z,5.45
2022-12-04T20:42:52.474Z,5.43
2022-12-04T20:45:24.568Z,5.44
2022-12-04T20:47:56.581Z,5.43
2022-12-04T20:50:28.580Z,5.45
2022-12-04T20:53:00.596Z,5.43
2022-12-04T20:55:32.603Z,5.44
2022-12-04T20:58:04.578Z,5.47
2022-12-04T21:00:36.616Z,5.44
2022-12-04T21:03:08.646Z,5.49
2022-12-04T21:05:40.910Z,5.51
2022-12-04T21:08:12.901Z,5.49
2022-12-04T21:10:46.488Z,5.55
2022-12-04T21:13:37.129Z,5.59
2022-12-04T21:16:09.586Z,5.60
2022-12-04T21:18:44.443Z,5.62
2022-12-04T21:21:17.481Z,5.65
2022-12-04T21:23:49.441Z,5.65
2022-12-04T21:26:22.269Z,5.67
2022-12-04T21:28:54.182Z,5.68
2022-12-04T21:31:29.066Z,5.66
2022-12-04T21:34:02.938Z,5.64
2022-12-04T21:36:35.217Z,5.68
2022-12-04T21:39:08.637Z,5.67
2022-12-04T21:41:59.043Z,5.69
2022-12-04T21:44:30.896Z,5.69
2022-12-04T21:47:02.974Z,5.67
2022-12-04T21:49:34.955Z,5.68
2022-12-04T21:52:06.961Z,5.67
2022-12-04T21:54:39.016Z,5.67
2022-12-04T21:57:11.136Z,5.69
2022-12-04T21:59:43.283Z,5.66
2022-12-04T22:02:15.724Z,5.71
2022-12-04T22:04:47.927Z,5.70
2022-12-04T22:07:19.899Z,5.73
2022-12-04T22:09:51.938Z,5.73
2022-12-04T22:12:48.650Z,5.74
2022-12-04T22:15:16.019Z,5.78
2022-12-04T22:17:48.000Z,5.81
2022-12-04T22:20:20.070Z,5.82
2022-12-04T22:22:52.160Z,5.79
2022-12-04T22:25:24.138Z,5.78
2022-12-04T22:27:57.575Z,5.76
2022-12-04T22:30:29.764Z,5.74
2022-12-04T22:33:01.805Z,5.83
2022-12-04T22:35:34.441Z,5.82
2022-12-04T22:38:06.456Z,5.81
2022-12-04T22:40:38.814Z,5.79
2022-12-04T22:43:10.831Z,5.79
2022-12-04T22:45:43.035Z,5.86
2022-12-04T22:48:14.979Z,5.83
2022-12-04T22:51:15.157Z,5.85
2022-12-04T22:53:50.813Z,5.83
2022-12-04T22:56:27.329Z,5.76
2022-12-04T22:59:00.709Z,5.79
2022-12-04T23:01:34.355Z,5.81
2022-12-04T23:04:06.420Z,5.80
2022-12-04T23:06:38.503Z,5.79
2022-12-04T23:09:16.926Z,5.82
2022-12-04T23:11:53.786Z,5.81
2022-12-04T23:14:27.200Z,5.78
2022-12-04T23:16:59.533Z,5.79
2022-12-04T23:19:31.697Z,5.78
2022-12-04T23:22:03.695Z,5.81
2022-12-04T23:24:38.134Z,5.87
2022-12-04T23:27:10.144Z,5.77
2022-12-04T23:29:53.178Z,5.72
2022-12-04T23:32:25.613Z,5.73
2022-12-04T23:34:57.675Z,5.77
2022-12-04T23:37:29.736Z,5.74
2022-12-04T23:40:01.758Z,5.73
2022-12-04T23:42:34.087Z,5.72
2022-12-04T23:45:07.993Z,5.74
2022-12-04T23:47:39.923Z,5.69
2022-12-04T23:50:11.896Z,5.66
2022-12-04T23:52:43.869Z,5.61
2022-12-04T23:55:16.198Z,5.62
2022-12-04T23:57:48.253Z,5.61
